createdAt,value
2022-10-05T00:01:22.836Z,10.78
2022-10-05T00:05:16.663Z,10.90
2022-10-05T00:09:05.532Z,11.07
2022-10-05T00:12:54.554Z,11.22
2022-10-05T00:16:46.741Z,11.36
2022-10-05T00:20:30.116Z,11.38
2022-10-05T00:24:10.767Z,11.46
2022-10-05T00:27:40.307Z,11.44
2022-10-05T00:31:13.018Z,11.49
2022-10-05T00:34:34.018Z,11.54
2022-10-05T00:38:02.778Z,11.44
2022-10-05T00:41:48.619Z,11.25
2022-10-05T00:45:13.387Z,11.11
2022-10-05T00:48:42.318Z,11.08
2022-10-05T00:52:31.357Z,10.97
2022-10-05T00:56:16.825Z,11.13
2022-10-05T01:00:11.769Z,11.39
2022-10-05T01:03:54.906Z,11.56
2022-10-05T01:08:03.246Z,11.31
2022-10-05T01:11:58.291Z,11.31
2022-10-05T01:15:41.298Z,11.59
2022-10-05T01:19:16.982Z,11.65
2022-10-05T01:22:42.423Z,11.73
2022-10-05T01:26:36.387Z,11.80
2022-10-05T01:30:49.006Z,11.88
2022-10-05T01:35:01.692Z,11.89
2022-10-05T01:38:59.270Z,11.77
2022-10-05T01:42:52.723Z,11.81
2022-10-05T01:46:44.684Z,11.82
2022-10-05T01:50:45.802Z,12.09
2022-10-05T01:54:33.886Z,12.22
2022-10-05T01:58:25.614Z,12.32
2022-10-05T02:02:29.172Z,12.44
2022-10-05T02:06:00.114Z,12.62
2022-10-05T02:09:41.896Z,12.65
2022-10-05T02:13:30.749Z,12.61
2022-10-05T02:17:16.750Z,12.51
2022-10-05T02:21:08.570Z,12.43
2022-10-05T02:24:32.197Z,12.45
2022-10-05T02:28:01.080Z,12.56
2022-10-05T02:31:44.743Z,12.41
2022-10-05T02:34:52.212Z,12.30
2022-10-05T02:38:35.566Z,12.27
2022-10-05T02:42:45.280Z,12.34
2022-10-05T02:46:29.687Z,12.45
2022-10-05T02:50:16.811Z,12.49
2022-10-05T02:54:00.813Z,12.60
2022-10-05T02:57:43.706Z,12.71
2022-10-05T03:01:44.423Z,12.67
2022-10-05T03:05:34.170Z,12.61
2022-10-05T03:09:31.077Z,12.60
2022-10-05T03:13:09.796Z,12.62
2022-10-05T03:16:14.364Z,12.58
2022-10-05T03:19:43.349Z,12.62
2022-10-05T03:23:37.100Z,12.60
2022-10-05T03:27:33.596Z,12.45
2022-10-05T03:30:57.026Z,12.36
2022-10-05T03:34:30.725Z,12.40
2022-10-05T03:38:13.925Z,12.30
2022-10-05T03:42:21.295Z,11.98
2022-10-05T03:45:59.263Z,11.94
2022-10-05T03:49:35.160Z,11.90
2022-10-05T03:53:38.733Z,12.05
2022-10-05T03:57:30.270Z,12.02
2022-10-05T04:00:36.862Z,11.94
2022-10-05T04:04:23.710Z,12.15
2022-10-05T04:08:15.190Z,12.26
2022-10-05T04:12:12.730Z,12.08
2022-10-05T04:15:55.942Z,11.96
2022-10-05T04:18:54.661Z,11.94
2022-10-05T04:22:52.717Z,11.87
2022-10-05T04:26:37.128Z,11.89
2022-10-05T04:30:17.856Z,11.84
2022-10-05T04:34:05.666Z,11.60
2022-10-05T04:37:22.386Z,11.55
2022-10-05T04:41:05.379Z,11.56
2022-10-05T04:45:01.834Z,11.57
2022-10-05T04:48:25.731Z,11.72
2022-10-05T04:51:51.289Z,11.73
2022-10-05T04:55:38.327Z,11.54
2022-10-05T04:59:32.858Z,11.40
2022-10-05T05:03:27.667Z,11.51
2022-10-05T05:07:12.664Z,11.49
2022-10-05T05:10:57.196Z,11.55
2022-10-05T05:14:54.073Z,11.49
2022-10-05T05:18:46.165Z,11.60
2022-10-05T05:22:25.324Z,11.64
2022-10-05T05:26:12.925Z,11.59
2022-10-05T05:30:23.311Z,11.36
2022-10-05T05:33:45.882Z,11.48
2022-10-05T05:37:37.922Z,11.71
2022-10-05T05:41:19.158Z,11.87
2022-10-05T05:45:10.791Z,12.07
2022-10-05T05:48:53.151Z,12.07
2022-10-05T05:52:01.458Z,12.00
2022-10-05T05:55:36.244Z,12.08
2022-10-05T05:58:52.111Z,12.30
2022-10-05T06:02:29.959Z,12.53
2022-10-05T06:06:23.443Z,12.78
2022-10-05T06:09:59.962Z,12.95
2022-10-05T06:13:53.219Z,13.10
2022-10-05T06:17:31.341Z,13.15
2022-10-05T06:21:37.748Z,12.84
2022-10-05T06:25:02.701Z,12.94
2022-10-05T06:28:34.787Z,12.87
2022-10-05T06:32:35.997Z,13.00
2022-10-05T06:36:29.206Z,13.10
2022-10-05T06:40:16.617Z,13.27
2022-10-05T06:44:10.179Z,13.34
2022-10-05T06:48:05.353Z,13.53
2022-10-05T06:52:12.089Z,13.83
2022-10-05T06:56:11.885Z,13.93
2022-10-05T07:00:18.461Z,14.04
2022-10-05T07:04:19.947Z,14.19
2022-10-05T07:08:10.195Z,14.42
2022-10-05T07:12:03.725Z,14.68
2022-10-05T07:16:03.421Z,14.73
2022-10-05T07:20:13.949Z,15.03
2022-10-05T07:24:09.534Z,15.40
2022-10-05T07:28:10.859Z,15.65
2022-10-05T07:32:03.436Z,15.79
2022-10-05T07:36:02.811Z,16.06
2022-10-05T07:40:01.352Z,16.12
2022-10-05T07:44:02.875Z,16.38
2022-10-05T07:48:04.593Z,16.58
2022-10-05T07:51:56.414Z,16.47
2022-10-05T07:55:19.672Z,16.59
2022-10-05T07:59:09.304Z,16.66
2022-10-05T08:03:07.489Z,16.77
2022-10-05T08:06:59.912Z,16.88
2022-10-05T08:10:55.472Z,16.91
2022-10-05T08:14:54.951Z,17.05
2022-10-05T08:19:02.074Z,16.97
2022-10-05T08:22:51.404Z,17.28
2022-10-05T08:26:46.122Z,17.52
2022-10-05T08:30:41.660Z,17.49
2022-10-05T08:34:30.885Z,17.87
2022-10-05T08:38:23.322Z,18.27
2022-10-05T08:42:29.390Z,18.33
2022-10-05T08:46:27.210Z,18.95
2022-10-05T08:50:17.633Z,19.09
2022-10-05T08:54:37.595Z,19.26
2022-10-05T08:58:25.287Z,19.69
2022-10-05T09:02:17.758Z,19.62
2022-10-05T09:06:14.924Z,19.84
2022-10-05T09:10:10.344Z,20.38
2022-10-05T09:14:14.409Z,20.41
2022-10-05T09:18:04.993Z,20.44
2022-10-05T09:22:21.984Z,20.70
2022-10-05T09:26:19.965Z,21.46
2022-10-05T09:30:15.369Z,21.54
2022-10-05T09:34:20.281Z,21.43
2022-10-05T09:38:13.889Z,21.35
2022-10-05T09:42:30.352Z,20.95
2022-10-05T09:46:40.473Z,21.18
2022-10-05T09:50:44.315Z,20.79
2022-10-05T09:54:45.858Z,21.14
2022-10-05T09:58:37.813Z,21.39
2022-10-05T10:02:28.820Z,21.89
2022-10-05T10:06:26.736Z,21.92
2022-10-05T10:10:16.418Z,22.16
2022-10-05T10:14:23.974Z,22.34
2022-10-05T10:18:28.108Z,22.75
2022-10-05T10:22:34.191Z,22.37
2022-10-05T10:26:28.322Z,22.54
2022-10-05T10:30:44.637Z,22.23
2022-10-05T10:34:35.926Z,22.21
2022-10-05T10:38:23.539Z,22.14
2022-10-05T10:42:10.049Z,22.45
2022-10-05T10:46:05.627Z,22.89
2022-10-05T10:49:53.969Z,22.94
2022-10-05T10:53:48.290Z,23.02
2022-10-05T10:57:52.206Z,23.30
2022-10-05T11:01:51.180Z,23.53
2022-10-05T11:05:48.013Z,23.71
2022-10-05T11:09:44.188Z,23.79
2022-10-05T11:13:32.235Z,23.91
2022-10-05T11:17:36.171Z,24.22
2022-10-05T11:21:34.275Z,24.16
2022-10-05T11:25:38.854Z,23.77
2022-10-05T11:29:37.357Z,23.96
2022-10-05T11:33:40.365Z,23.86
2022-10-05T11:37:38.401Z,23.49
2022-10-05T11:41:43.015Z,23.27
2022-10-05T11:45:43.082Z,23.00
2022-10-05T11:49:41.066Z,23.25
2022-10-05T11:53:39.103Z,23.18
2022-10-05T11:57:31.001Z,23.05
2022-10-05T12:01:23.050Z,23.30
2022-10-05T12:05:30.291Z,23.51
2022-10-05T12:09:28.684Z,23.32
2022-10-05T12:13:35.625Z,23.46
2022-10-05T12:17:27.522Z,23.56
2022-10-05T12:21:09.137Z,23.97
2022-10-05T12:25:15.991Z,24.15
2022-10-05T12:29:05.411Z,24.35
2022-10-05T12:33:02.429Z,23.92
2022-10-05T12:37:06.493Z,24.14
2022-10-05T12:41:16.184Z,23.73
2022-10-05T12:45:16.424Z,24.05
2022-10-05T12:49:14.247Z,24.36
2022-10-05T12:53:09.280Z,24.54
2022-10-05T12:57:04.953Z,24.37
2022-10-05T13:00:57.344Z,24.13
2022-10-05T13:04:45.335Z,24.06
2022-10-05T13:08:33.065Z,24.05
2022-10-05T13:12:30.925Z,23.69
2022-10-05T13:16:25.707Z,23.60
2022-10-05T13:20:07.032Z,23.65
2022-10-05T13:24:06.590Z,23.41
2022-10-05T13:27:59.486Z,23.68
2022-10-05T13:31:54.384Z,23.97
2022-10-05T13:35:58.405Z,24.40
2022-10-05T13:39:50.562Z,24.75
2022-10-05T13:43:50.080Z,24.78
2022-10-05T13:48:00.072Z,24.59
2022-10-05T13:52:05.117Z,24.77
2022-10-05T13:56:21.188Z,24.75
2022-10-05T14:00:24.238Z,24.32
2022-10-05T14:04:24.850Z,24.24
2022-10-05T14:08:11.973Z,24.02
2022-10-05T14:12:01.012Z,24.01
2022-10-05T14:15:53.366Z,23.96
2022-10-05T14:19:57.226Z,23.91
2022-10-05T14:23:46.325Z,23.98
2022-10-05T14:27:35.452Z,23.98
2022-10-05T14:31:24.543Z,23.86
2022-10-05T14:35:43.765Z,23.75
2022-10-05T14:39:33.363Z,23.57
2022-10-05T14:43:24.439Z,23.62
2022-10-05T14:47:20.450Z,23.47
2022-10-05T14:51:12.981Z,23.25
2022-10-05T14:55:04.085Z,23.11
2022-10-05T14:59:06.303Z,23.18
2022-10-05T15:03:22.966Z,22.95
2022-10-05T15:07:15.367Z,22.84
2022-10-05T15:11:22.463Z,22.60
2022-10-05T15:15:13.918Z,22.74
2022-10-05T15:18:59.764Z,22.63
2022-10-05T15:23:06.835Z,22.50
2022-10-05T15:27:01.959Z,22.39
2022-10-05T15:30:49.128Z,22.25
2022-10-05T15:34:38.866Z,22.10
2022-10-05T15:38:31.045Z,21.92
2022-10-05T15:42:22.794Z,21.86
2022-10-05T15:46:25.990Z,22.01
2022-10-05T15:50:18.628Z,22.10
2022-10-05T15:54:09.739Z,22.19
2022-10-05T15:58:11.296Z,22.16
2022-10-05T16:02:07.010Z,22.01
2022-10-05T16:06:04.320Z,21.89
2022-10-05T16:10:13.913Z,21.69
2022-10-05T16:14:14.799Z,21.54
2022-10-05T16:18:25.422Z,21.23
2022-10-05T16:22:23.907Z,20.84
2022-10-05T16:26:22.274Z,20.62
2022-10-05T16:30:12.279Z,20.40
2022-10-05T16:34:04.565Z,20.20
2022-10-05T16:37:50.255Z,20.10
2022-10-05T16:41:42.703Z,19.95
2022-10-05T16:45:45.425Z,19.81
2022-10-05T16:49:47.145Z,19.65
2022-10-05T16:53:36.555Z,19.48
2022-10-05T16:57:34.736Z,19.67
2022-10-05T17:01:26.282Z,19.46
2022-10-05T17:05:29.522Z,19.16
2022-10-05T17:09:21.216Z,19.11
2022-10-05T17:13:19.408Z,19.07
2022-10-05T17:17:16.965Z,19.27
2022-10-05T17:21:27.426Z,18.85
2022-10-05T17:25:28.894Z,18.75
2022-10-05T17:29:16.767Z,18.52
2022-10-05T17:33:11.235Z,18.47
2022-10-05T17:37:04.504Z,18.16
2022-10-05T17:41:05.857Z,17.60
2022-10-05T17:45:14.092Z,17.43
2022-10-05T17:48:54.457Z,17.74
2022-10-05T17:52:42.151Z,17.61
2022-10-05T17:56:37.307Z,17.13
2022-10-05T18:00:39.271Z,16.70
2022-10-05T18:04:54.687Z,16.57
2022-10-05T18:08:51.988Z,16.44
2022-10-05T18:12:42.486Z,16.30
2022-10-05T18:16:32.373Z,16.16
2022-10-05T18:20:15.215Z,16.16
2022-10-05T18:23:50.472Z,16.12
2022-10-05T18:27:48.556Z,15.93
2022-10-05T18:31:45.071Z,15.91
2022-10-05T18:35:39.029Z,15.90
2022-10-05T18:39:55.333Z,15.92
2022-10-05T18:43:59.988Z,15.75
2022-10-05T18:47:56.706Z,15.70
2022-10-05T18:51:40.631Z,15.57
2022-10-05T18:55:15.681Z,15.36
2022-10-05T18:59:00.339Z,15.20
2022-10-05T19:02:52.437Z,15.19
2022-10-05T19:06:38.674Z,15.16
2022-10-05T19:10:26.081Z,15.13
2022-10-05T19:14:26.869Z,15.10
2022-10-05T19:18:35.241Z,15.08
2022-10-05T19:22:27.325Z,14.95
2022-10-05T19:26:49.785Z,14.98
2022-10-05T19:31:02.947Z,15.14
2022-10-05T19:35:28.622Z,15.06
2022-10-05T19:39:20.231Z,14.91
2022-10-05T19:43:18.224Z,14.80
2022-10-05T19:47:13.127Z,14.81
2022-10-05T19:50:43.754Z,14.78
2022-10-05T19:54:38.951Z,14.62
2022-10-05T19:58:28.313Z,14.68
2022-10-05T20:02:26.804Z,14.62
2022-10-05T20:05:58.358Z,14.46
2022-10-05T20:09:59.480Z,14.35
2022-10-05T20:14:00.278Z,14.40
2022-10-05T20:17:58.031Z,14.41
2022-10-05T20:21:48.094Z,14.47
2022-10-05T20:25:36.349Z,14.35
2022-10-05T20:29:31.799Z,14.33
2022-10-05T20:33:20.470Z,14.70
2022-10-05T20:37:09.282Z,14.41
2022-10-05T20:40:58.147Z,14.32
2022-10-05T20:44:47.709Z,14.18
2022-10-05T20:48:37.557Z,14.15
2022-10-05T20:52:08.029Z,14.15
2022-10-05T20:55:57.231Z,14.23
2022-10-05T20:59:46.485Z,14.22
2022-10-05T21:03:28.961Z,14.12
2022-10-05T21:07:17.981Z,14.09
2022-10-05T21:11:07.256Z,13.96
2022-10-05T21:14:59.318Z,13.83
2022-10-05T21:18:42.143Z,13.80
2022-10-05T21:22:31.265Z,13.82
2022-10-05T21:26:21.280Z,13.71
2022-10-05T21:29:41.571Z,13.60
2022-10-05T21:33:19.168Z,13.60
2022-10-05T21:37:08.688Z,13.56
2022-10-05T21:40:39.128Z,13.61
2022-10-05T21:44:06.819Z,13.56
2022-10-05T21:47:55.542Z,13.52
2022-10-05T21:51:29.557Z,13.57
2022-10-05T21:55:18.428Z,13.56
2022-10-05T21:58:47.215Z,13.63
2022-10-05T22:02:16.201Z,13.63
2022-10-05T22:06:00.351Z,13.67
2022-10-05T22:09:42.067Z,13.53
2022-10-05T22:13:30.954Z,13.49
2022-10-05T22:17:13.231Z,13.43
2022-10-05T22:21:02.328Z,13.47
2022-10-05T22:24:51.307Z,13.39
2022-10-05T22:28:13.957Z,13.45
2022-10-05T22:31:56.132Z,13.36
2022-10-05T22:35:18.043Z,13.31
2022-10-05T22:38:47.277Z,13.24
2022-10-05T22:46:27.822Z,13.41
2022-10-05T22:50:10.717Z,13.41
2022-10-05T22:53:59.633Z,13.37
2022-10-05T22:57:40.974Z,13.35
2022-10-05T23:01:28.941Z,13.34
2022-10-05T23:05:17.743Z,13.32
2022-10-05T23:09:01.287Z,13.24
2022-10-05T23:12:29.797Z,13.21
2022-10-05T23:16:10.387Z,13.18
2022-10-05T23:19:59.260Z,13.19
2022-10-05T23:23:25.520Z,13.18
2022-10-05T23:27:06.718Z,13.19
2022-10-05T23:30:24.882Z,13.18
2022-10-05T23:34:13.808Z,13.15
2022-10-05T23:38:02.620Z,13.19
2022-10-05T23:41:18.569Z,13.23
2022-10-05T23:45:07.531Z,13.49
2022-10-05T23:48:55.035Z,13.45
2022-10-05T23:52:42.802Z,13.88
2022-10-05T23:56:31.550Z,13.57
